Time;durP1;ratioP1;P1;durP2;ratioP2;P2;SDS_P1;SDS_P2;PMS_P1;PMS_P2;Temp;Humidity;BMP_temperature;BMP_pressure;BME280_temperature;BME280_humidity;BME280_pressure;Samples;Min_cycle;Max_cycle;Signal;HPM_P1;HPM_P2
2022/06/30 00:00:05;;;;;;;7.10;3.90;;;21.20;99.90;;;;;;5073957;28;20472;-74
2022/06/30 00:02:32;;;;;;;4.00;3.70;;;21.10;99.90;;;;;;5073702;28;20456;-74
2022/06/30 00:04:59;;;;;;;4.10;3.80;;;21.10;99.90;;;;;;5073482;28;20456;-74
2022/06/30 00:07:26;;;;;;;4.90;3.33;;;21.10;99.90;;;;;;5073688;28;20441;-74
2022/06/30 00:10:01;;;;;;;4.43;4.07;;;21.10;99.90;;;;;;5073912;28;20468;-74
2022/06/30 00:12:28;;;;;;;4.37;4.07;;;21.10;99.90;;;;;;5074017;28;20564;-74
2022/06/30 00:14:55;;;;;;;4.10;3.80;;;21.00;99.90;;;;;;5073774;28;20440;-74
2022/06/30 00:17:22;;;;;;;3.70;3.40;;;21.00;99.90;;;;;;5073424;28;20451;-74
2022/06/30 00:19:48;;;;;;;4.23;3.90;;;21.00;99.90;;;;;;5073399;28;20476;-75
2022/06/30 00:22:15;;;;;;;3.90;3.60;;;21.10;99.90;;;;;;5073544;28;20452;-74
2022/06/30 00:24:42;;;;;;;3.90;3.60;;;21.00;99.90;;;;;;5074131;28;20445;-74
2022/06/30 00:27:11;;;;;;;4.70;3.83;;;21.00;99.90;;;;;;5073966;28;20441;-74
2022/06/30 00:29:38;;;;;;;4.00;3.70;;;21.00;99.90;;;;;;5073508;28;20500;-74
2022/06/30 00:32:06;;;;;;;8.63;4.00;;;21.00;99.90;;;;;;5073396;28;20487;-73
2022/06/30 00:34:33;;;;;;;4.50;4.10;;;21.00;99.90;;;;;;5073491;28;20441;-73
2022/06/30 00:37:00;;;;;;;3.77;3.50;;;21.10;99.90;;;;;;5074072;28;20475;-73
2022/06/30 00:39:27;;;;;;;4.00;3.70;;;21.10;99.90;;;;;;5073150;28;20469;-73
2022/06/30 00:41:54;;;;;;;6.47;4.10;;;21.30;99.90;;;;;;5073095;28;20463;-74
2022/06/30 00:44:22;;;;;;;4.20;3.80;;;21.10;99.90;;;;;;5073073;28;20825;-73
2022/06/30 00:46:49;;;;;;;5.20;3.70;;;21.00;99.90;;;;;;5073228;28;20444;-74
2022/06/30 00:49:18;;;;;;;4.00;3.60;;;21.00;99.90;;;;;;5072984;28;20471;-74
2022/06/30 00:51:45;;;;;;;7.47;4.03;;;21.00;99.90;;;;;;5072678;28;20545;-75
2022/06/30 00:54:12;;;;;;;4.10;3.80;;;21.00;99.90;;;;;;5073023;28;20452;-74
2022/06/30 00:56:43;;;;;;;5.37;3.80;;;21.00;99.90;;;;;;5072708;28;20445;-74
2022/06/30 00:59:13;;;;;;;3.73;3.40;;;21.10;99.90;;;;;;5076067;28;20827;-74
2022/06/30 01:01:43;;;;;;;4.83;3.97;;;21.10;99.90;;;;;;5076791;28;20447;-73
2022/06/30 01:04:11;;;;;;;6.57;3.80;;;21.00;99.90;;;;;;5077023;28;20524;-72
2022/06/30 01:06:38;;;;;;;4.73;3.50;;;21.00;99.90;;;;;;5077089;28;20436;-73
2022/06/30 01:09:05;;;;;;;6.40;4.07;;;21.00;99.90;;;;;;5076786;28;20475;-73
2022/06/30 01:14:18;;;;;;;5.43;4.30;;;21.10;99.90;;;;;;5076917;28;20492;-73
2022/06/30 01:16:46;;;;;;;4.10;3.90;;;21.10;99.90;;;;;;5076492;28;20488;-73
2022/06/30 01:19:15;;;;;;;4.60;4.20;;;21.10;99.90;;;;;;5076826;28;20582;-73
2022/06/30 01:21:59;;;;;;;4.50;4.07;;;21.10;99.90;;;;;;5077049;28;20441;-74
2022/06/30 01:24:25;;;;;;;4.47;4.07;;;21.00;99.90;;;;;;5076587;28;20432;-73
2022/06/30 01:26:56;;;;;;;4.10;3.80;;;21.00;99.90;;;;;;5076578;28;20445;-74
2022/06/30 01:29:23;;;;;;;5.30;4.90;;;21.00;99.90;;;;;;5076433;28;20883;-73
2022/06/30 01:31:50;;;;;;;4.80;4.40;;;21.00;99.90;;;;;;5076634;28;20506;-73
2022/06/30 01:34:16;;;;;;;4.17;3.77;;;20.90;99.90;;;;;;5076436;28;20456;-73
2022/06/30 01:36:44;;;;;;;4.80;4.43;;;21.00;99.90;;;;;;5076330;28;20452;-73
2022/06/30 01:39:11;;;;;;;4.80;4.47;;;20.90;99.90;;;;;;5076203;28;20983;-73
2022/06/30 01:41:38;;;;;;;5.00;4.50;;;20.90;99.90;;;;;;5075956;28;20441;-74
2022/06/30 01:44:05;;;;;;;6.70;4.20;;;21.00;99.90;;;;;;5076159;28;20451;-74
2022/06/30 01:46:32;;;;;;;5.90;3.90;;;21.00;99.90;;;;;;5076276;28;20452;-73
2022/06/30 01:48:59;;;;;;;4.57;4.20;;;20.90;99.90;;;;;;5075986;28;20642;-73
2022/06/30 01:51:25;;;;;;;4.77;4.37;;;21.00;99.90;;;;;;5076022;28;20484;-73
2022/06/30 01:53:54;;;;;;;4.23;3.87;;;20.90;99.90;;;;;;5076062;28;20453;-73
2022/06/30 01:56:20;;;;;;;5.03;4.17;;;20.90;99.90;;;;;;5076180;28;20827;-73
2022/06/30 01:58:47;;;;;;;6.23;5.63;;;20.90;99.90;;;;;;5076109;28;20465;-73
2022/06/30 02:01:14;;;;;;;4.73;4.33;;;20.90;99.90;;;;;;5076058;28;20448;-71
2022/06/30 02:03:40;;;;;;;4.83;4.50;;;20.90;99.90;;;;;;5075720;28;20433;-73
2022/06/30 02:06:07;;;;;;;5.43;3.97;;;20.90;99.90;;;;;;5076018;28;20445;-73
2022/06/30 02:08:34;;;;;;;4.97;4.10;;;20.80;99.90;;;;;;5075537;28;20444;-73
2022/06/30 02:11:02;;;;;;;5.20;4.80;;;20.80;99.90;;;;;;5075178;28;20555;-72
2022/06/30 02:13:29;;;;;;;4.60;4.30;;;20.90;99.90;;;;;;5075844;28;20440;-72
2022/06/30 02:15:55;;;;;;;5.30;4.70;;;20.90;99.90;;;;;;5075603;28;20452;-72
2022/06/30 02:18:22;;;;;;;4.40;4.00;;;20.80;99.90;;;;;;5075291;28;20453;-72
2022/06/30 02:20:49;;;;;;;5.13;4.63;;;20.90;99.90;;;;;;5075344;28;20936;-73
2022/06/30 02:23:16;;;;;;;6.33;4.80;;;20.90;99.90;;;;;;5075050;28;20947;-73
2022/06/30 02:25:42;;;;;;;8.83;4.63;;;20.80;99.90;;;;;;5075037;28;20453;-73
2022/06/30 02:28:10;;;;;;;8.63;4.83;;;20.90;99.90;;;;;;5075407;28;20471;-74
2022/06/30 02:30:37;;;;;;;6.10;4.47;;;20.90;99.90;;;;;;5074954;28;20475;-74
2022/06/30 02:33:04;;;;;;;5.30;4.63;;;20.80;99.90;;;;;;5075193;28;20559;-73
2022/06/30 02:35:31;;;;;;;5.20;4.73;;;20.90;99.90;;;;;;5075215;28;20476;-74
2022/06/30 02:37:58;;;;;;;12.50;5.43;;;20.90;99.90;;;;;;5074962;28;20480;-73
2022/06/30 02:40:25;;;;;;;4.70;4.30;;;20.80;99.90;;;;;;5074865;28;21063;-73
2022/06/30 02:42:52;;;;;;;5.80;5.30;;;20.80;99.90;;;;;;5074798;28;20444;-74
2022/06/30 02:45:20;;;;;;;4.80;4.40;;;20.80;99.90;;;;;;5075111;28;20519;-73
2022/06/30 02:47:46;;;;;;;5.30;4.20;;;20.80;99.90;;;;;;5074985;28;20441;-73
2022/06/30 02:50:14;;;;;;;6.17;4.70;;;20.70;99.90;;;;;;5074997;28;20464;-73
2022/06/30 02:52:42;;;;;;;5.50;5.00;;;20.60;99.90;;;;;;5074849;28;20484;-73
2022/06/30 02:55:10;;;;;;;5.37;4.97;;;20.60;99.90;;;;;;5074897;28;20445;-73
2022/06/30 02:57:37;;;;;;;5.70;4.60;;;20.60;99.90;;;;;;5074818;28;20522;-73
2022/06/30 03:00:06;;;;;;;6.10;4.90;;;20.60;99.90;;;;;;5074420;28;20983;-73
2022/06/30 03:02:34;;;;;;;5.60;5.00;;;20.70;99.90;;;;;;5074401;28;20959;-73
2022/06/30 03:05:01;;;;;;;6.20;5.00;;;20.70;99.90;;;;;;5074548;28;20453;-73
2022/06/30 03:07:28;;;;;;;5.13;4.63;;;20.60;99.90;;;;;;5074683;28;20475;-73
2022/06/30 03:09:55;;;;;;;5.40;4.60;;;20.60;99.90;;;;;;5074420;28;20464;-74
2022/06/30 03:12:21;;;;;;;7.40;4.80;;;20.60;99.90;;;;;;5074594;28;20480;-73
2022/06/30 03:14:48;;;;;;;5.90;4.70;;;20.60;99.90;;;;;;5074655;28;20445;-73
2022/06/30 03:17:15;;;;;;;4.27;3.87;;;20.60;99.90;;;;;;5074304;28;20458;-73
2022/06/30 03:19:43;;;;;;;5.13;4.57;;;20.60;99.90;;;;;;5073973;28;20999;-73
2022/06/30 03:22:10;;;;;;;5.00;4.43;;;20.60;99.90;;;;;;5073462;28;20441;-74
2022/06/30 03:24:37;;;;;;;4.63;4.27;;;20.60;99.90;;;;;;5074187;28;20444;-73
2022/06/30 03:27:05;;;;;;;4.40;4.00;;;20.60;99.90;;;;;;5074097;28;20444;-73
2022/06/30 03:29:31;;;;;;;4.23;3.83;;;20.60;99.90;;;;;;5073779;28;20975;-73
2022/06/30 03:31:58;;;;;;;7.13;4.70;;;20.50;99.90;;;;;;5074123;28;20473;-73
2022/06/30 03:34:25;;;;;;;5.63;4.90;;;20.40;99.90;;;;;;5074388;28;20490;-73
2022/06/30 03:36:53;;;;;;;7.23;4.47;;;20.30;99.90;;;;;;5074284;28;20447;-73
2022/06/30 03:39:20;;;;;;;8.80;4.70;;;20.10;99.90;;;;;;5073921;28;20499;-73
2022/06/30 03:41:46;;;;;;;5.53;5.13;;;20.00;99.90;;;;;;5074242;28;20433;-73
2022/06/30 03:44:13;;;;;;;4.93;4.47;;;19.90;99.90;;;;;;5073940;28;20449;-73
2022/06/30 03:46:40;;;;;;;6.20;4.67;;;19.90;99.90;;;;;;5074158;28;20474;-74
2022/06/30 03:49:06;;;;;;;5.50;4.90;;;19.80;99.90;;;;;;5073549;28;20461;-73
2022/06/30 03:51:33;;;;;;;5.53;4.83;;;19.90;99.90;;;;;;5074025;28;20503;-73
2022/06/30 03:54:01;;;;;;;6.00;4.93;;;20.00;99.90;;;;;;5073910;28;20491;-73
2022/06/30 03:56:28;;;;;;;6.80;5.10;;;19.90;99.90;;;;;;5074199;28;20449;-74
2022/06/30 03:58:55;;;;;;;10.60;5.37;;;20.00;99.90;;;;;;5073573;28;20465;-73
2022/06/30 04:01:21;;;;;;;5.57;5.10;;;20.00;99.90;;;;;;5073244;28;20963;-75
2022/06/30 04:03:48;;;;;;;5.40;4.90;;;20.10;99.90;;;;;;5073669;28;20445;-74
2022/06/30 04:06:15;;;;;;;6.63;5.20;;;20.10;99.90;;;;;;5074052;28;20445;-74
2022/06/30 04:08:42;;;;;;;7.00;4.63;;;20.10;99.90;;;;;;5073805;28;20813;-73
2022/06/30 04:11:10;;;;;;;5.40;4.70;;;20.10;99.90;;;;;;5073860;28;20536;-73
2022/06/30 04:13:37;;;;;;;6.77;5.13;;;20.10;99.90;;;;;;5073249;28;21050;-73
2022/06/30 04:16:04;;;;;;;5.33;4.73;;;20.10;99.90;;;;;;5073957;28;20453;-73
2022/06/30 04:18:31;;;;;;;5.10;4.57;;;20.10;99.90;;;;;;5073424;28;20456;-73
2022/06/30 04:20:57;;;;;;;6.27;5.67;;;20.20;99.90;;;;;;5073597;28;20436;-73
2022/06/30 04:23:24;;;;;;;6.83;5.37;;;20.30;99.90;;;;;;5073354;28;20490;-73
2022/06/30 04:25:51;;;;;;;10.60;5.73;;;20.30;99.90;;;;;;5073395;28;20456;-73
2022/06/30 04:28:19;;;;;;;6.77;4.90;;;20.30;99.90;;;;;;5073130;28;20452;-72
2022/06/30 04:33:38;;;;;;;5.87;5.40;;;20.30;99.90;;;;;;5024763;28;20884;-72
2022/06/30 04:36:05;;;;;;;6.13;5.40;;;20.40;99.90;;;;;;5073194;28;20490;-72
2022/06/30 04:38:32;;;;;;;5.80;5.40;;;20.60;99.90;;;;;;5073160;28;20457;-72
2022/06/30 04:44:00;;;;;;;9.10;5.57;;;20.40;99.90;;;;;;4991521;28;20476;-73
2022/06/30 04:46:27;;;;;;;6.37;4.63;;;20.40;99.90;;;;;;4991435;28;20895;-72
2022/06/30 04:48:55;;;;;;;7.27;5.77;;;20.50;99.90;;;;;;5028284;28;20504;-72
2022/06/30 04:51:23;;;;;;;6.43;5.40;;;20.50;99.90;;;;;;5072653;28;20452;-72
2022/06/30 04:53:50;;;;;;;5.90;5.43;;;20.60;99.90;;;;;;5073495;28;20481;-72
2022/06/30 04:56:17;;;;;;;6.20;5.03;;;20.60;99.90;;;;;;5072514;28;20449;-72
2022/06/30 04:58:45;;;;;;;6.63;5.60;;;20.50;99.90;;;;;;5072728;28;20548;-73
2022/06/30 05:01:13;;;;;;;6.27;5.67;;;20.60;99.90;;;;;;5072553;28;20441;-72
2022/06/30 05:03:40;;;;;;;8.20;7.40;;;20.60;99.90;;;;;;5072777;28;20444;-72
2022/06/30 05:06:07;;;;;;;6.00;5.27;;;20.70;99.90;;;;;;5072685;28;20476;-73
2022/06/30 05:08:34;;;;;;;5.53;5.13;;;20.60;99.90;;;;;;5072809;28;20554;-72
2022/06/30 05:11:02;;;;;;;6.10;5.60;;;20.60;99.90;;;;;;5072691;28;20452;-72
2022/06/30 05:13:28;;;;;;;6.90;6.30;;;20.50;99.90;;;;;;5072628;28;20480;-74
2022/06/30 05:15:55;;;;;;;7.90;6.50;;;20.50;99.90;;;;;;5072705;28;20448;-73
2022/06/30 05:18:24;;;;;;;6.47;5.90;;;20.50;99.90;;;;;;5072495;28;20449;-73
2022/06/30 05:20:51;;;;;;;6.90;6.20;;;20.40;99.90;;;;;;5072246;28;20967;-73
2022/06/30 05:23:17;;;;;;;5.83;5.17;;;20.50;99.90;;;;;;5072616;28;20448;-73
2022/06/30 05:28:29;;;;;;;9.00;6.77;;;20.50;99.90;;;;;;5072647;28;20890;-73
2022/06/30 05:30:56;;;;;;;9.53;6.37;;;20.50;99.90;;;;;;5072577;28;20451;-73
2022/06/30 05:33:25;;;;;;;6.20;5.60;;;20.60;99.90;;;;;;5072194;28;21057;-73
2022/06/30 05:35:53;;;;;;;6.50;5.33;;;20.80;99.90;;;;;;5072499;28;20456;-73
2022/06/30 05:38:21;;;;;;;8.03;6.33;;;20.90;99.90;;;;;;5072512;28;20449;-73
2022/06/30 05:40:48;;;;;;;11.13;6.47;;;21.00;99.90;;;;;;5072439;28;20444;-73
2022/06/30 05:43:15;;;;;;;8.07;6.47;;;21.00;99.90;;;;;;5072074;28;20440;-73
2022/06/30 05:45:42;;;;;;;9.50;6.60;;;21.10;99.90;;;;;;5075051;28;20569;-73
2022/06/30 05:48:09;;;;;;;7.10;6.57;;;21.10;99.90;;;;;;5076324;28;20819;-73
2022/06/30 05:50:37;;;;;;;6.37;5.83;;;21.00;99.90;;;;;;5075612;28;20457;-73
2022/06/30 05:53:04;;;;;;;8.30;7.50;;;21.10;99.90;;;;;;5075432;28;21025;-74
2022/06/30 05:55:30;;;;;;;6.00;5.40;;;21.10;99.90;;;;;;5075845;28;20796;-73
2022/06/30 05:58:01;;;;;;;6.60;6.10;;;21.00;99.90;;;;;;5075866;28;20440;-73
2022/06/30 06:00:29;;;;;;;6.30;5.60;;;21.00;99.90;;;;;;5075644;28;20468;-73
2022/06/30 06:03:01;;;;;;;10.10;6.30;;;21.00;99.90;;;;;;5075715;28;20475;-73
2022/06/30 06:05:28;;;;;;;6.90;6.07;;;21.00;99.90;;;;;;5075494;28;20425;-73
2022/06/30 06:07:56;;;;;;;6.10;5.60;;;21.00;99.90;;;;;;5075711;28;20891;-73
2022/06/30 06:10:23;;;;;;;8.33;5.97;;;21.00;99.90;;;;;;5075495;28;20884;-73
2022/06/30 06:12:50;;;;;;;9.27;6.83;;;21.00;99.90;;;;;;5075562;28;20492;-72
2022/06/30 06:15:17;;;;;;;10.80;6.60;;;20.90;99.90;;;;;;5076447;28;20799;-74
2022/06/30 06:17:45;;;;;;;6.37;5.67;;;20.90;99.90;;;;;;5076088;28;20445;-73
2022/06/30 06:20:13;;;;;;;6.80;6.30;;;20.90;99.90;;;;;;5075135;28;20479;-73
2022/06/30 06:22:39;;;;;;;11.60;6.70;;;20.80;99.90;;;;;;5075360;28;20808;-73
2022/06/30 06:25:09;;;;;;;6.43;5.93;;;20.80;99.90;;;;;;5075052;28;20449;-73
2022/06/30 06:27:36;;;;;;;7.17;6.47;;;20.60;99.90;;;;;;5074833;28;20448;-73
2022/06/30 06:30:03;;;;;;;7.43;6.43;;;20.90;99.90;;;;;;5074891;28;20475;-73
2022/06/30 06:32:30;;;;;;;9.50;6.33;;;20.90;99.90;;;;;;5074824;28;20993;-73
2022/06/30 06:34:57;;;;;;;7.90;6.33;;;21.00;99.90;;;;;;5075227;28;20523;-73
2022/06/30 06:37:24;;;;;;;10.53;7.33;;;21.00;99.90;;;;;;5074786;28;20441;-73
2022/06/30 06:39:50;;;;;;;6.67;6.10;;;21.00;99.90;;;;;;5074770;28;20461;-74
2022/06/30 06:42:19;;;;;;;8.43;7.40;;;21.00;99.90;;;;;;5075118;28;20472;-73
2022/06/30 06:44:47;;;;;;;7.60;7.00;;;21.00;99.90;;;;;;5074638;28;20447;-73
2022/06/30 06:47:14;;;;;;;6.97;6.33;;;20.70;99.90;;;;;;5074556;28;21032;-73
2022/06/30 06:49:41;;;;;;;8.53;6.30;;;21.10;99.90;;;;;;5074581;28;20519;-73
2022/06/30 06:52:08;;;;;;;7.27;6.70;;;21.10;99.90;;;;;;5074566;28;20449;-73
2022/06/30 06:54:35;;;;;;;8.30;6.53;;;21.20;99.90;;;;;;5074454;28;21064;-73
2022/06/30 06:57:01;;;;;;;8.50;7.30;;;21.10;99.90;;;;;;5073611;28;20939;-73
2022/06/30 06:59:29;;;;;;;7.27;6.57;;;21.20;99.90;;;;;;5074615;28;20585;-73
2022/06/30 07:01:56;;;;;;;8.20;7.40;;;21.10;99.90;;;;;;5074538;28;20444;-74
2022/06/30 07:04:23;;;;;;;8.13;7.50;;;21.20;99.90;;;;;;5074304;28;20456;-73
2022/06/30 07:06:49;;;;;;;9.53;8.13;;;21.10;99.90;;;;;;5074772;28;20436;-73
2022/06/30 07:09:16;;;;;;;7.93;7.00;;;21.20;99.90;;;;;;5074688;28;20469;-73
2022/06/30 07:11:43;;;;;;;9.07;7.30;;;21.40;99.90;;;;;;5074951;28;20429;-74
2022/06/30 07:14:09;;;;;;;8.60;7.60;;;21.40;99.90;;;;;;5074677;28;20472;-73
2022/06/30 07:16:37;;;;;;;8.17;7.37;;;21.50;99.90;;;;;;5074384;28;20441;-74
2022/06/30 07:19:04;;;;;;;9.30;8.47;;;21.50;99.90;;;;;;5074072;28;20473;-73
2022/06/30 07:21:31;;;;;;;9.80;8.40;;;21.30;99.90;;;;;;5074193;28;20451;-73
2022/06/30 07:23:58;;;;;;;8.63;7.60;;;21.30;99.90;;;;;;5074168;28;20444;-74
2022/06/30 07:26:24;;;;;;;8.20;7.47;;;21.30;99.90;;;;;;5074342;28;20453;-73
2022/06/30 07:28:51;;;;;;;9.97;8.87;;;21.50;99.90;;;;;;5074107;28;20465;-74
2022/06/30 07:31:20;;;;;;;8.57;7.87;;;21.70;99.90;;;;;;5074133;28;20441;-73
2022/06/30 07:33:48;;;;;;;8.47;7.60;;;21.70;99.90;;;;;;5073854;28;20837;-73
2022/06/30 07:36:15;;;;;;;8.13;7.43;;;22.00;99.90;;;;;;5073675;28;20467;-73
2022/06/30 07:38:44;;;;;;;8.30;7.50;;;22.00;99.90;;;;;;5073622;28;20518;-74
2022/06/30 07:41:12;;;;;;;8.77;7.97;;;22.00;99.90;;;;;;5073561;28;20549;-76
2022/06/30 07:43:39;;;;;;;9.57;8.77;;;21.80;99.90;;;;;;5073822;28;20498;-76
2022/06/30 07:46:07;;;;;;;9.77;8.87;;;21.80;99.90;;;;;;5073869;28;20453;-74
2022/06/30 07:48:34;;;;;;;13.90;9.20;;;21.70;99.90;;;;;;5074396;28;20460;-74
2022/06/30 07:51:03;;;;;;;11.00;10.00;;;21.60;99.90;;;;;;5073697;28;20456;-73
2022/06/30 07:53:29;;;;;;;10.40;9.40;;;21.70;99.90;;;;;;5073436;28;20850;-74
2022/06/30 07:55:56;;;;;;;14.03;10.10;;;22.10;99.90;;;;;;5073629;28;20444;-74
2022/06/30 07:58:23;;;;;;;17.50;12.00;;;22.10;99.90;;;;;;5073606;28;20445;-74
2022/06/30 08:00:49;;;;;;;14.80;9.37;;;21.90;99.90;;;;;;5073624;28;20444;-74
2022/06/30 08:03:16;;;;;;;12.60;10.23;;;21.70;99.90;;;;;;5073634;28;20475;-74
2022/06/30 08:05:43;;;;;;;10.63;9.60;;;21.70;99.90;;;;;;5073705;28;20833;-74
2022/06/30 08:08:11;;;;;;;9.97;9.07;;;21.80;99.90;;;;;;5073274;28;20449;-73
2022/06/30 08:10:38;;;;;;;12.80;10.83;;;21.70;99.90;;;;;;5073226;28;20479;-74
2022/06/30 08:13:04;;;;;;;10.90;9.13;;;21.90;99.90;;;;;;5073360;28;20452;-73
2022/06/30 08:15:31;;;;;;;11.67;8.60;;;21.90;99.90;;;;;;5073186;28;20891;-74
2022/06/30 08:18:02;;;;;;;9.90;8.10;;;22.10;99.90;;;;;;5073194;28;20441;-74
2022/06/30 08:20:29;;;;;;;8.43;7.53;;;22.10;99.90;;;;;;5084420;22;20489;-75
2022/06/30 08:22:56;;;;;;;8.73;7.70;;;22.20;99.90;;;;;;5053104;28;20454;-76
2022/06/30 08:25:26;;;;;;;8.93;8.03;;;22.30;99.90;;;;;;5054065;28;20450;-76
2022/06/30 08:27:53;;;;;;;11.70;8.40;;;22.20;99.90;;;;;;5053607;28;20434;-75
2022/06/30 08:30:20;;;;;;;9.50;8.60;;;22.40;99.90;;;;;;5053564;28;20469;-75
2022/06/30 08:32:46;;;;;;;10.67;9.60;;;22.30;99.90;;;;;;5053764;28;20948;-77
2022/06/30 08:35:14;;;;;;;11.03;9.90;;;22.10;99.90;;;;;;5054276;28;20485;-75
2022/06/30 08:37:41;;;;;;;8.87;8.07;;;22.10;99.90;;;;;;5054488;28;20449;-79
2022/06/30 08:42:55;;;;;;;16.17;8.90;;;22.30;99.90;;;;;;5053962;28;20456;-76
2022/06/30 08:45:24;;;;;;;12.50;8.90;;;22.20;99.90;;;;;;5053303;28;21050;-78
2022/06/30 08:47:51;;;;;;;29.63;9.73;;;22.30;99.90;;;;;;5053667;28;20446;-77
2022/06/30 08:50:18;;;;;;;22.07;9.63;;;22.50;99.90;;;;;;5053980;28;20473;-77
2022/06/30 08:52:48;;;;;;;10.37;8.80;;;22.60;99.90;;;;;;5053241;28;20811;-76
2022/06/30 08:55:16;;;;;;;9.63;8.73;;;22.60;99.90;;;;;;5053079;28;20485;-76
2022/06/30 08:57:45;;;;;;;10.60;8.97;;;22.60;99.90;;;;;;5053183;28;20815;-76
2022/06/30 09:00:16;;;;;;;10.37;9.47;;;22.50;99.90;;;;;;5053271;28;20466;-76
2022/06/30 09:02:43;;;;;;;12.47;8.87;;;22.60;99.90;;;;;;5053337;28;20438;-75
2022/06/30 09:05:11;;;;;;;21.20;10.77;;;22.70;99.90;;;;;;5052961;28;20446;-74
2022/06/30 09:07:37;;;;;;;9.80;9.00;;;22.80;99.90;;;;;;5052946;28;20450;-75
2022/06/30 09:10:06;;;;;;;13.07;10.00;;;22.80;99.90;;;;;;5052944;28;20837;-75
2022/06/30 09:12:33;;;;;;;10.30;9.23;;;22.70;99.90;;;;;;5052785;28;20549;-76
2022/06/30 09:15:01;;;;;;;11.30;10.20;;;22.50;99.90;;;;;;5052701;28;21053;-77
2022/06/30 09:17:31;;;;;;;9.03;8.23;;;22.60;99.90;;;;;;5053139;28;20446;-76
2022/06/30 09:20:00;;;;;;;11.57;9.43;;;22.70;99.90;;;;;;5054829;28;20477;-75
2022/06/30 09:22:28;;;;;;;10.70;9.77;;;22.70;99.90;;;;;;5056792;28;20484;-75
2022/06/30 09:24:57;;;;;;;9.57;8.67;;;22.90;99.90;;;;;;5056845;28;20915;-77
2022/06/30 09:27:24;;;;;;;11.70;10.50;;;23.10;99.90;;;;;;5056629;28;20505;-74
2022/06/30 09:29:54;;;;;;;9.83;9.00;;;23.10;99.90;;;;;;5057497;28;20473;-75
2022/06/30 09:32:22;;;;;;;9.70;8.70;;;23.00;99.90;;;;;;5058026;28;20429;-76
2022/06/30 09:34:52;;;;;;;12.03;10.93;;;23.10;99.90;;;;;;5056938;28;20999;-75
2022/06/30 09:37:22;;;;;;;9.10;8.40;;;23.10;99.90;;;;;;5057218;28;20816;-75
2022/06/30 09:39:50;;;;;;;10.53;9.53;;;23.10;99.90;;;;;;5056894;28;20466;-76
2022/06/30 09:42:40;;;;;;;9.90;8.90;;;23.20;99.90;;;;;;5056388;28;20460;-75
2022/06/30 09:45:09;;;;;;;11.17;8.30;;;23.50;99.90;;;;;;5057110;28;20449;-76
2022/06/30 09:47:36;;;;;;;14.83;10.17;;;23.70;99.90;;;;;;5056196;28;20449;-76
2022/06/30 09:50:07;;;;;;;10.47;9.37;;;23.50;99.90;;;;;;5057114;28;20488;-76
2022/06/30 09:52:34;;;;;;;11.67;9.20;;;23.40;99.90;;;;;;5057437;28;20434;-75
2022/06/30 09:55:02;;;;;;;11.27;10.20;;;23.30;99.90;;;;;;5056827;28;20488;-75
2022/06/30 09:57:31;;;;;;;10.33;9.33;;;23.60;99.90;;;;;;5056311;28;20508;-76
2022/06/30 10:00:00;;;;;;;10.73;8.87;;;23.40;99.90;;;;;;5056528;28;20562;-76
2022/06/30 10:02:32;;;;;;;11.80;9.80;;;23.50;99.90;;;;;;5056083;28;20441;-75
2022/06/30 10:04:59;;;;;;;9.93;9.07;;;23.60;99.90;;;;;;5056184;28;20448;-75
2022/06/30 10:07:28;;;;;;;8.73;7.93;;;23.80;99.90;;;;;;5055826;28;20998;-75
2022/06/30 10:09:55;;;;;;;9.20;8.27;;;24.00;99.90;;;;;;5056093;28;20799;-77
2022/06/30 10:12:24;;;;;;;9.40;8.27;;;24.20;99.90;;;;;;5055771;28;20445;-76
2022/06/30 10:14:53;;;;;;;9.10;8.40;;;23.90;99.90;;;;;;5055722;28;20481;-76
2022/06/30 10:17:22;;;;;;;9.13;8.33;;;24.10;99.90;;;;;;5055871;28;20445;-76
2022/06/30 10:19:51;;;;;;;8.67;7.90;;;23.90;99.90;;;;;;5055565;28;20474;-77
2022/06/30 10:22:19;;;;;;;8.70;8.03;;;23.90;99.90;;;;;;5055774;28;20511;-75
2022/06/30 10:24:47;;;;;;;8.60;8.00;;;24.00;99.90;;;;;;5055801;28;20818;-75
2022/06/30 10:27:15;;;;;;;10.30;8.27;;;23.90;99.90;;;;;;5055442;28;20450;-76
2022/06/30 10:29:46;;;;;;;9.37;8.50;;;24.30;99.90;;;;;;5055566;28;20584;-76
2022/06/30 10:32:21;;;;;;;10.47;9.57;;;24.40;99.90;;;;;;5055881;28;20430;-75
2022/06/30 10:34:55;;;;;;;9.47;8.70;;;24.20;99.90;;;;;;5055733;28;20835;-76
2022/06/30 10:37:29;;;;;;;10.43;9.60;;;23.90;99.90;;;;;;5056390;28;20517;-77
2022/06/30 10:40:00;;;;;;;10.73;9.53;;;23.90;99.90;;;;;;5066003;28;20523;-78
2022/06/30 10:42:46;;;;;;;10.13;9.33;;;23.70;99.90;;;;;;5065305;28;20798;-78
2022/06/30 10:45:36;;;;;;;16.90;9.33;;;23.70;99.90;;;;;;5066271;28;20430;-78
2022/06/30 10:48:04;;;;;;;9.53;8.80;;;23.80;99.90;;;;;;5058996;28;20520;-78
2022/06/30 10:50:33;;;;;;;9.53;8.73;;;24.00;99.90;;;;;;5060252;28;20473;-77
2022/06/30 10:53:00;;;;;;;11.00;9.90;;;23.90;99.90;;;;;;5060465;28;20449;-77
2022/06/30 10:55:28;;;;;;;10.00;9.10;;;23.80;99.90;;;;;;5057496;28;20474;-78
2022/06/30 10:58:07;;;;;;;11.10;10.00;;;23.80;99.90;;;;;;5057840;28;20457;-78
2022/06/30 11:00:56;;;;;;;12.83;9.90;;;23.80;99.90;;;;;;5055464;28;20470;-77
2022/06/30 11:03:59;;;;;;;12.47;11.07;;;23.80;99.90;;;;;;5059140;28;20438;-79
2022/06/30 11:07:08;;;;;;;10.83;9.00;;;23.70;99.90;;;;;;5058622;28;20479;-77
2022/06/30 11:10:06;;;;;;;9.97;7.90;;;23.90;99.90;;;;;;5058303;28;20515;-78
2022/06/30 11:13:06;;;;;;;9.30;8.40;;;24.20;99.90;;;;;;5058916;28;20468;-77
2022/06/30 11:15:55;;;;;;;9.90;8.90;;;24.40;99.90;;;;;;5058482;28;20476;-77
2022/06/30 11:18:23;;;;;;;11.63;9.33;;;24.80;99.90;;;;;;5057770;28;20457;-78
2022/06/30 11:20:51;;;;;;;12.10;9.70;;;24.90;99.90;;;;;;5056205;28;20996;-77
2022/06/30 11:23:22;;;;;;;10.93;9.60;;;24.90;99.90;;;;;;5058458;28;20457;-78
2022/06/30 11:28:39;;;;;;;12.73;10.70;;;25.00;99.90;;;;;;5056469;28;20460;-77
2022/06/30 11:31:21;;;;;;;11.27;10.10;;;25.20;99.90;;;;;;5054568;28;20470;-78
2022/06/30 11:33:52;;;;;;;12.07;11.07;;;25.00;99.90;;;;;;5059305;28;20433;-77
2022/06/30 11:36:19;;;;;;;11.53;10.47;;;24.80;99.90;;;;;;5054221;28;20975;-77
2022/06/30 11:38:53;;;;;;;10.03;9.03;;;24.60;99.90;;;;;;5054356;28;21010;-77
2022/06/30 11:44:09;;;;;;;10.83;9.73;;;24.60;99.90;;;;;;5057135;28;20404;-78
2022/06/30 11:46:55;;;;;;;11.10;9.97;;;24.80;99.90;;;;;;5060406;28;20454;-78
2022/06/30 11:49:24;;;;;;;14.13;11.90;;;25.00;99.90;;;;;;5059604;28;20486;-78
2022/06/30 11:51:54;;;;;;;13.90;12.70;;;25.20;99.90;;;;;;5062021;28;20521;-77
2022/06/30 11:54:24;;;;;;;15.60;13.93;;;25.30;99.90;;;;;;5061494;28;20484;-77
2022/06/30 11:56:53;;;;;;;10.97;9.87;;;25.60;99.90;;;;;;5062596;28;20445;-77
2022/06/30 11:59:21;;;;;;;12.20;11.00;;;25.80;99.90;;;;;;5061145;28;20471;-77
2022/06/30 12:02:05;;;;;;;12.03;10.83;;;25.60;99.90;;;;;;5055858;28;20450;-77
2022/06/30 12:04:33;;;;;;;21.77;11.07;;;25.80;99.90;;;;;;5056015;28;20426;-77
2022/06/30 12:07:00;;;;;;;23.60;14.30;;;25.80;99.90;;;;;;5057639;28;20503;-78
2022/06/30 12:09:27;;;;;;;12.70;11.40;;;26.10;99.90;;;;;;5062760;28;20462;-77
2022/06/30 12:11:54;;;;;;;15.13;13.30;;;26.30;99.90;;;;;;5056545;28;20462;-77
2022/06/30 12:14:24;;;;;;;19.93;15.23;;;26.40;99.90;;;;;;5057141;28;20441;-77
2022/06/30 12:16:55;;;;;;;14.57;11.83;;;26.60;99.90;;;;;;5058389;28;20457;-77
2022/06/30 12:19:22;;;;;;;11.87;10.70;;;26.80;99.90;;;;;;5055896;28;20545;-77
2022/06/30 12:21:50;;;;;;;11.47;10.47;;;26.70;99.90;;;;;;5062660;28;20457;-78
2022/06/30 12:24:17;;;;;;;15.37;11.60;;;26.30;99.90;;;;;;5056750;28;20928;-77
2022/06/30 12:26:50;;;;;;;14.10;11.60;;;26.00;99.90;;;;;;5056044;28;20449;-77
2022/06/30 12:29:17;;;;;;;10.80;9.50;;;25.80;99.90;;;;;;5064398;28;20430;-77
2022/06/30 12:31:58;;;;;;;13.20;11.63;;;25.80;99.90;;;;;;5066342;28;20449;-77
2022/06/30 12:34:25;;;;;;;17.30;14.00;;;25.80;99.90;;;;;;5063853;28;20438;-77
2022/06/30 12:36:52;;;;;;;14.50;12.87;;;25.80;99.90;;;;;;5058050;28;20458;-77
2022/06/30 12:39:19;;;;;;;11.70;10.63;;;26.00;99.90;;;;;;5058057;28;20473;-78
2022/06/30 12:41:46;;;;;;;12.40;11.20;;;26.00;99.90;;;;;;5058303;28;20445;-79
2022/06/30 12:44:13;;;;;;;15.40;12.60;;;26.20;99.90;;;;;;5056324;28;20820;-78
2022/06/30 12:46:43;;;;;;;13.20;11.90;;;26.20;99.90;;;;;;5058342;28;20440;-79
2022/06/30 12:49:22;;;;;;;14.23;11.30;;;26.80;99.90;;;;;;5061351;28;20442;-78
2022/06/30 12:51:50;;;;;;;11.07;9.97;;;26.50;99.90;;;;;;5058498;28;20434;-79
2022/06/30 12:54:24;;;;;;;19.53;11.40;;;26.30;99.90;;;;;;5058338;28;20442;-78
2022/06/30 12:56:51;;;;;;;13.70;11.90;;;26.10;99.90;;;;;;5059684;28;20483;-77
2022/06/30 12:59:18;;;;;;;13.87;12.37;;;26.00;99.90;;;;;;5057731;28;20885;-77
2022/06/30 13:01:48;;;;;;;12.03;10.83;;;25.80;99.90;;;;;;5060324;28;20453;-79
2022/06/30 13:04:21;;;;;;;12.20;11.10;;;25.90;99.90;;;;;;5062730;28;20449;-79
2022/06/30 13:06:50;;;;;;;13.97;12.57;;;26.10;99.90;;;;;;5067655;28;20449;-78
2022/06/30 13:09:19;;;;;;;12.57;11.37;;;26.10;99.90;;;;;;5067634;28;20475;-78